Accueil
METAR-TAF:

METAR-TAF

Aéroports :

Aéroport international de Raja Sansi

Amritsar, Inde

latitude: 31-38N, longitude: 074-52E, altitude: 229 m

Observation

Le bulletin a été fait il y a 1 heure et 10 minutes, à 04:00 UTC
Vent calme
Température 12°C
Humidité 71%
Pression 1022 hPa
Visibilité: 1500 m
brume sèche

METAR: VIAR 080400Z VRB00KT 1500 R34/1800 HZ NSC 12/07 Q1022 NOSIG

Heure: 10:40 (05:10 UTC)

Prévision

Le bulletin a été fait il y a 3 heures et 10 minutes, à 02:00 UTC
Prévision valable du 08 à 03 UTC au 08 à 12 UTC
Vent kt de nord
Visibilité: 0800 m
Brouillard mince
Evoluant progressivement
du 08 à 05 UTC au 08 à 07 UTC
Vent 2 kt de direction variable
Visibilité: 2000 m
brume sèche
Evoluant progressivement
du 08 à 09 UTC au 08 à 11 UTC
Visibilité: 3000 m
brume sèche

TAF: VIAR 080200Z 0803/0812 00000KT 0800 MIFG BECMG 0805/0807 VRB02KT 2000 HZ BECMG 0809/0811 3000 HZ

Observations et prévisions météorologiques de plus de 4000 aéroports (messages METAR et TAF).

Les stations disponibles sont représentées par des disques jaunes et rouges sur la carte.

Passer la souris dessus pour voir le nom de la station.

Cliquer dessus pour voir les observations et prévisions météorologiques.

Pour changer de carte: cliquez sur les boutons verts avec une croix noire pour zoomer, sur le bouton vert avec un tiret pour effectuer un zoom arrière, ou sur les flèches vertes pour les cartes adjacentes.


METAR-TAF: